BAW26V KPDX-EGLL
Flight info
| Callsign | BAW26V |
|---|---|
| Flight time | N/A |
| Altitude | 37000 |
| Route | LAVAA7 SUNED DCT GEG DCT MLP J540 YQL Q896 MEETO DCT 57N100W 61N090W 64N080W 66N070W/M085F390 DCT DARUB DCT 67N050W 66N040W 64N030W 6130N02000W DCT ETILO/N0489F390 DCT EVNAL DCT KELLY L10 WAL UY53 NUGRA |
| Aircraft | B78X/H-SADE1E2E3FGHIJ1J3J4J5J6LM1M2OP2RWXYZ/LB1D1G1 |
Departure
| Time | 2026-05-08 08:15 |
|---|---|
| Airport | Portland International Airport (KPDX) |
Arrival
| Time | N/A |
|---|---|
| Airport | London Heathrow Airport (EGLL) |
| Time | Latitude | Longitude | Altitude | Speed | Heading |
|---|---|---|---|---|---|
| 2026-05-08 07:41 | 45.59194 | -122.59699 | 35 ft | 0 kts | 150° |
| 2026-05-08 08:05 | 45.59202 | -122.59705 | 34 ft | 3 kts | 150° |
| 2026-05-08 08:05 | 45.59218 | -122.59719 | 34 ft | 3 kts | 150° |
| 2026-05-08 08:05 | 45.59234 | -122.59732 | 34 ft | 3 kts | 150° |
| 2026-05-08 08:06 | 45.59251 | -122.59748 | 33 ft | 3 kts | 133° |
| 2026-05-08 08:06 | 45.59263 | -122.59770 | 34 ft | 3 kts | 114° |
| 2026-05-08 08:06 | 45.59270 | -122.59797 | 32 ft | 3 kts | 94° |
| 2026-05-08 08:06 | 45.59270 | -122.59810 | 32 ft | 0 kts | 88° |
| 2026-05-08 08:07 | 45.59273 | -122.59795 | 34 ft | 4 kts | 77° |
| 2026-05-08 08:08 | 45.59283 | -122.59789 | 34 ft | 0 kts | 26° |
| 2026-05-08 08:11 | 45.59288 | -122.59786 | 35 ft | 3 kts | 26° |
| 2026-05-08 08:11 | 45.59321 | -122.59765 | 35 ft | 6 kts | 20° |
| 2026-05-08 08:11 | 45.59350 | -122.59778 | 35 ft | 3 kts | 316° |
| 2026-05-08 08:11 | 45.59374 | -122.59827 | 35 ft | 9 kts | 300° |
| 2026-05-08 08:12 | 45.59418 | -122.59937 | 34 ft | 17 kts | 298° |
| 2026-05-08 08:12 | 45.59484 | -122.60108 | 34 ft | 20 kts | 299° |
| 2026-05-08 08:12 | 45.59545 | -122.60150 | 35 ft | 5 kts | 41° |
| 2026-05-08 08:12 | 45.59557 | -122.60126 | 35 ft | 2 kts | 65° |
| 2026-05-08 08:13 | 45.59565 | -122.60097 | 36 ft | 5 kts | 66° |
| 2026-05-08 08:13 | 45.59585 | -122.60045 | 36 ft | 8 kts | 58° |
| 2026-05-08 08:13 | 45.59624 | -122.59954 | 37 ft | 11 kts | 68° |
| 2026-05-08 08:13 | 45.59612 | -122.59892 | 36 ft | 6 kts | 111° |
| 2026-05-08 08:14 | 45.59607 | -122.59882 | 36 ft | 0 kts | 119° |
| 2026-05-08 08:14 | 45.59595 | -122.59851 | 36 ft | 17 kts | 119° |
| 2026-05-08 08:14 | 45.59436 | -122.59442 | 36 ft | 79 kts | 119° |
| 2026-05-08 08:15 | 45.59075 | -122.58516 | 37 ft | 136 kts | 119° |
| 2026-05-08 08:15 | 45.58532 | -122.57125 | 56 ft | 180 kts | 121° |
| 2026-05-08 08:15 | 45.57942 | -122.55558 | 592 ft | 184 kts | 117° |
| 2026-05-08 08:15 | 45.57366 | -122.53929 | 1407 ft | 185 kts | 118° |
| 2026-05-08 08:16 | 45.56783 | -122.52418 | 2433 ft | 161 kts | 119° |
| 2026-05-08 08:16 | 45.56244 | -122.50881 | 2581 ft | 189 kts | 107° |
| 2026-05-08 08:16 | 45.56392 | -122.48907 | 2671 ft | 219 kts | 74° |
| 2026-05-08 08:16 | 45.56601 | -122.46678 | 2987 ft | 237 kts | 101° |
| 2026-05-08 08:17 | 45.56230 | -122.44285 | 3437 ft | 257 kts | 104° |
| 2026-05-08 08:17 | 45.55802 | -122.41749 | 4138 ft | 267 kts | 106° |
| 2026-05-08 08:17 | 45.55321 | -122.39167 | 4955 ft | 273 kts | 107° |
| 2026-05-08 08:17 | 45.54829 | -122.36516 | 5710 ft | 281 kts | 106° |
| 2026-05-08 08:18 | 45.54556 | -122.33721 | 6433 ft | 289 kts | 79° |
| 2026-05-08 08:18 | 45.55202 | -122.31009 | 7165 ft | 291 kts | 51° |
| 2026-05-08 08:18 | 45.56504 | -122.28836 | 7905 ft | 294 kts | 45° |
| 2026-05-08 08:18 | 45.57901 | -122.26674 | 8698 ft | 299 kts | 44° |
| 2026-05-08 08:19 | 45.59342 | -122.24508 | 9495 ft | 303 kts | 44° |
| 2026-05-08 08:19 | 45.60794 | -122.22294 | 10245 ft | 308 kts | 44° |
| 2026-05-08 08:19 | 45.62293 | -122.19984 | 10680 ft | 325 kts | 44° |
| 2026-05-08 08:19 | 45.63855 | -122.17582 | 11031 ft | 343 kts | 45° |
| 2026-05-08 08:20 | 45.65314 | -122.14702 | 11345 ft | 365 kts | 63° |
| 2026-05-08 08:20 | 45.66379 | -122.11408 | 11919 ft | 374 kts | 64° |
| 2026-05-08 08:20 | 45.67424 | -122.07969 | 12623 ft | 380 kts | 66° |
| 2026-05-08 08:20 | 45.68461 | -122.04467 | 13346 ft | 384 kts | 66° |
| 2026-05-08 08:21 | 45.69534 | -122.00947 | 14055 ft | 388 kts | 65° |
| 2026-05-08 08:21 | 45.70628 | -121.97397 | 14701 ft | 392 kts | 65° |
| 2026-05-08 08:21 | 45.71726 | -121.93796 | 15344 ft | 396 kts | 65° |
| 2026-05-08 08:21 | 45.72826 | -121.90153 | 15984 ft | 400 kts | 65° |
| 2026-05-08 08:22 | 45.73938 | -121.86476 | 16612 ft | 404 kts | 65° |
| 2026-05-08 08:22 | 45.75066 | -121.82761 | 17214 ft | 408 kts | 65° |
| 2026-05-08 08:22 | 45.76198 | -121.79020 | 17824 ft | 412 kts | 65° |
| 2026-05-08 08:22 | 45.77339 | -121.75232 | 18422 ft | 416 kts | 65° |
| 2026-05-08 08:23 | 45.78477 | -121.71456 | 18896 ft | 420 kts | 65° |
| 2026-05-08 08:23 | 45.79641 | -121.67589 | 19387 ft | 424 kts | 65° |
| 2026-05-08 08:23 | 45.80815 | -121.63682 | 19866 ft | 428 kts | 65° |
| 2026-05-08 08:23 | 45.81997 | -121.59743 | 20348 ft | 433 kts | 65° |
| 2026-05-08 08:24 | 45.83188 | -121.55765 | 20793 ft | 437 kts | 65° |
| 2026-05-08 08:24 | 45.84392 | -121.51740 | 21257 ft | 441 kts | 65° |
| 2026-05-08 08:24 | 45.85605 | -121.47676 | 21694 ft | 445 kts | 65° |
| 2026-05-08 08:24 | 45.86826 | -121.43580 | 22140 ft | 449 kts | 65° |
| 2026-05-08 08:25 | 45.88057 | -121.39443 | 22564 ft | 453 kts | 65° |
| 2026-05-08 08:25 | 45.89299 | -121.35263 | 22982 ft | 457 kts | 65° |
| 2026-05-08 08:25 | 45.90125 | -121.32480 | 23260 ft | 459 kts | 65° |
| 2026-05-08 08:25 | 45.91381 | -121.28236 | 23665 ft | 463 kts | 65° |
| 2026-05-08 08:26 | 45.93071 | -121.22521 | 24145 ft | 467 kts | 65° |
| 2026-05-08 08:26 | 45.94343 | -121.18211 | 24520 ft | 469 kts | 65° |
| 2026-05-08 08:26 | 45.95188 | -121.15341 | 24766 ft | 471 kts | 65° |
| 2026-05-08 08:26 | 45.96464 | -121.11005 | 25124 ft | 473 kts | 65° |
| 2026-05-08 08:27 | 45.97745 | -121.06640 | 25491 ft | 474 kts | 65° |
| 2026-05-08 08:27 | 45.99028 | -121.02266 | 25873 ft | 476 kts | 65° |
| 2026-05-08 08:27 | 46.00315 | -120.97869 | 26238 ft | 478 kts | 65° |
| 2026-05-08 08:27 | 46.01604 | -120.93455 | 26615 ft | 480 kts | 65° |
| 2026-05-08 08:28 | 46.02900 | -120.89011 | 26991 ft | 482 kts | 65° |
| 2026-05-08 08:28 | 46.04200 | -120.84546 | 27379 ft | 484 kts | 65° |
| 2026-05-08 08:28 | 46.05500 | -120.80071 | 27750 ft | 486 kts | 65° |
| 2026-05-08 08:28 | 46.06807 | -120.75565 | 28119 ft | 488 kts | 65° |
| 2026-05-08 08:29 | 46.08119 | -120.71032 | 28497 ft | 491 kts | 65° |
| 2026-05-08 08:29 | 46.09433 | -120.66487 | 28864 ft | 493 kts | 65° |
| 2026-05-08 08:29 | 46.10753 | -120.61910 | 29242 ft | 495 kts | 65° |
| 2026-05-08 08:29 | 46.12074 | -120.57319 | 29612 ft | 497 kts | 66° |
| 2026-05-08 08:30 | 46.13403 | -120.52696 | 29972 ft | 500 kts | 65° |
| 2026-05-08 08:30 | 46.14718 | -120.48110 | 30280 ft | 502 kts | 65° |
| 2026-05-08 08:30 | 46.17393 | -120.38758 | 30937 ft | 506 kts | 65° |
| 2026-05-08 08:31 | 46.18736 | -120.34046 | 31267 ft | 508 kts | 65° |
| 2026-05-08 08:31 | 46.20080 | -120.29324 | 31594 ft | 510 kts | 65° |
| 2026-05-08 08:31 | 46.21428 | -120.24581 | 31921 ft | 512 kts | 65° |
| 2026-05-08 08:31 | 46.22781 | -120.19809 | 32241 ft | 514 kts | 65° |
| 2026-05-08 08:32 | 46.24134 | -120.15025 | 32575 ft | 516 kts | 65° |
| 2026-05-08 08:32 | 46.25495 | -120.10206 | 32895 ft | 518 kts | 65° |
| 2026-05-08 08:32 | 46.26854 | -120.05383 | 33217 ft | 519 kts | 65° |
| 2026-05-08 08:32 | 46.28215 | -120.00548 | 33520 ft | 521 kts | 65° |
| 2026-05-08 08:33 | 46.29810 | -119.95880 | 34021 ft | 513 kts | 54° |
| 2026-05-08 08:33 | 46.31905 | -119.91758 | 34428 ft | 507 kts | 47° |
| 2026-05-08 08:33 | 46.34142 | -119.87791 | 34759 ft | 507 kts | 47° |
| 2026-05-08 08:33 | 46.36370 | -119.83847 | 35108 ft | 506 kts | 47° |
| 2026-05-08 08:34 | 46.38610 | -119.79895 | 35457 ft | 506 kts | 47° |
| 2026-05-08 08:34 | 46.40832 | -119.75959 | 35800 ft | 505 kts | 47° |
| 2026-05-08 08:34 | 46.43058 | -119.72001 | 36108 ft | 505 kts | 47° |
| 2026-05-08 08:34 | 46.45272 | -119.68061 | 36430 ft | 504 kts | 47° |
| 2026-05-08 08:35 | 46.47466 | -119.64158 | 36749 ft | 504 kts | 47° |
| 2026-05-08 08:35 | 46.49676 | -119.60219 | 36960 ft | 504 kts | 46° |
| 2026-05-08 08:35 | 46.54066 | -119.52368 | 36950 ft | 497 kts | 46° |
| 2026-05-08 08:36 | 46.58437 | -119.44543 | 36950 ft | 498 kts | 47° |
| 2026-05-08 08:36 | 46.62796 | -119.36704 | 36943 ft | 498 kts | 46° |
| 2026-05-08 08:37 | 46.67120 | -119.28914 | 36949 ft | 497 kts | 46° |
| 2026-05-08 08:37 | 46.71457 | -119.21073 | 36946 ft | 497 kts | 46° |
| 2026-05-08 08:38 | 46.75791 | -119.13220 | 36957 ft | 496 kts | 47° |
| 2026-05-08 08:38 | 46.80108 | -119.05372 | 36957 ft | 496 kts | 47° |
| 2026-05-08 08:39 | 46.84420 | -118.97513 | 36961 ft | 495 kts | 47° |
| 2026-05-08 08:39 | 46.88722 | -118.89649 | 36966 ft | 494 kts | 47° |
| 2026-05-08 08:40 | 46.93005 | -118.81797 | 36967 ft | 494 kts | 47° |
| 2026-05-08 08:40 | 46.97261 | -118.73972 | 36969 ft | 494 kts | 47° |
| 2026-05-08 08:41 | 47.01530 | -118.66101 | 36968 ft | 493 kts | 47° |
| 2026-05-08 08:41 | 47.05797 | -118.58211 | 36968 ft | 493 kts | 47° |
| 2026-05-08 08:42 | 47.10055 | -118.50316 | 36974 ft | 492 kts | 47° |
| 2026-05-08 08:42 | 47.14297 | -118.42428 | 36973 ft | 492 kts | 47° |
| 2026-05-08 08:43 | 47.18532 | -118.34530 | 36957 ft | 492 kts | 46° |
| 2026-05-08 08:43 | 47.22736 | -118.26667 | 36961 ft | 492 kts | 46° |
| 2026-05-08 08:44 | 47.26956 | -118.18751 | 36975 ft | 491 kts | 46° |
| 2026-05-08 08:44 | 47.31172 | -118.10820 | 36980 ft | 492 kts | 46° |
| 2026-05-08 08:45 | 47.35384 | -118.02873 | 36981 ft | 492 kts | 46° |
| 2026-05-08 08:45 | 47.39597 | -117.94902 | 36990 ft | 491 kts | 46° |
| 2026-05-08 08:46 | 47.43798 | -117.86928 | 37003 ft | 491 kts | 46° |
| 2026-05-08 08:46 | 47.47983 | -117.78964 | 37011 ft | 491 kts | 46° |
| 2026-05-08 08:47 | 47.52169 | -117.70963 | 37017 ft | 492 kts | 49° |
| 2026-05-08 08:47 | 47.53963 | -117.66623 | 37039 ft | 500 kts | 60° |
| 2026-05-08 08:47 | 47.55239 | -117.61782 | 37035 ft | 508 kts | 71° |
| 2026-05-08 08:48 | 47.55918 | -117.56613 | 37051 ft | 515 kts | 82° |
| 2026-05-08 08:48 | 47.55959 | -117.51293 | 37053 ft | 520 kts | 91° |
| 2026-05-08 08:48 | 47.55473 | -117.40603 | 37029 ft | 521 kts | 91° |
| 2026-05-08 08:49 | 47.54943 | -117.29982 | 37030 ft | 521 kts | 90° |
| 2026-05-08 08:49 | 47.54429 | -117.19293 | 37029 ft | 521 kts | 91° |
| 2026-05-08 08:50 | 47.53885 | -117.08586 | 37032 ft | 521 kts | 91° |
| 2026-05-08 08:50 | 47.53342 | -116.97877 | 37037 ft | 521 kts | 91° |
| 2026-05-08 08:51 | 47.52784 | -116.87172 | 37038 ft | 521 kts | 91° |
| 2026-05-08 08:51 | 47.52218 | -116.76477 | 37031 ft | 522 kts | 91° |
| 2026-05-08 08:52 | 47.51641 | -116.65777 | 37029 ft | 520 kts | 91° |
| 2026-05-08 08:52 | 47.51056 | -116.55097 | 37019 ft | 521 kts | 91° |
| 2026-05-08 08:53 | 47.50461 | -116.44419 | 37005 ft | 521 kts | 91° |
| 2026-05-08 08:53 | 47.49859 | -116.33812 | 37007 ft | 521 kts | 91° |
| 2026-05-08 08:54 | 47.49244 | -116.23141 | 36999 ft | 520 kts | 91° |
| 2026-05-08 08:54 | 47.48619 | -116.12463 | 36981 ft | 521 kts | 91° |
| 2026-05-08 08:55 | 47.47984 | -116.01818 | 36959 ft | 519 kts | 91° |
| 2026-05-08 08:55 | 47.47341 | -115.91160 | 36953 ft | 520 kts | 91° |
| 2026-05-08 08:56 | 47.46690 | -115.80578 | 36947 ft | 519 kts | 91° |
| 2026-05-08 08:56 | 47.46592 | -115.75284 | 36978 ft | 513 kts | 80° |
| 2026-05-08 08:56 | 47.47116 | -115.70098 | 36977 ft | 506 kts | 69° |
| 2026-05-08 08:57 | 47.49844 | -115.60747 | 36974 ft | 489 kts | 49° |
| 2026-05-08 08:57 | 47.54336 | -115.53463 | 36946 ft | 476 kts | 35° |
| 2026-05-08 08:58 | 47.59309 | -115.46990 | 36951 ft | 475 kts | 34° |
| 2026-05-08 08:58 | 47.64118 | -115.40770 | 36949 ft | 476 kts | 35° |
| 2026-05-08 08:59 | 47.69084 | -115.34284 | 36964 ft | 476 kts | 34° |
| 2026-05-08 08:59 | 47.74062 | -115.27797 | 36968 ft | 474 kts | 35° |
| 2026-05-08 09:00 | 47.79018 | -115.21302 | 36957 ft | 475 kts | 35° |
| 2026-05-08 09:00 | 47.83972 | -115.14803 | 36966 ft | 475 kts | 35° |
| 2026-05-08 09:01 | 47.88896 | -115.08321 | 36969 ft | 475 kts | 35° |
| 2026-05-08 09:01 | 47.93840 | -115.01797 | 36969 ft | 474 kts | 35° |
| 2026-05-08 09:02 | 47.98784 | -114.95257 | 36972 ft | 475 kts | 35° |
| 2026-05-08 09:02 | 48.03721 | -114.88707 | 36977 ft | 475 kts | 35° |
| 2026-05-08 09:03 | 48.08658 | -114.82140 | 36977 ft | 475 kts | 35° |
| 2026-05-08 09:03 | 48.13585 | -114.75569 | 36990 ft | 475 kts | 35° |
| 2026-05-08 09:04 | 48.18486 | -114.69015 | 36996 ft | 475 kts | 35° |
| 2026-05-08 09:04 | 48.23417 | -114.62403 | 37001 ft | 476 kts | 35° |
| 2026-05-08 09:05 | 48.28360 | -114.55757 | 37001 ft | 476 kts | 35° |
| 2026-05-08 09:05 | 48.33256 | -114.49156 | 37005 ft | 475 kts | 35° |
| 2026-05-08 09:06 | 48.38168 | -114.42516 | 37017 ft | 474 kts | 34° |
| 2026-05-08 09:06 | 48.43059 | -114.35887 | 36995 ft | 473 kts | 34° |
| 2026-05-08 09:07 | 48.47935 | -114.29259 | 37024 ft | 471 kts | 34° |
| 2026-05-08 09:07 | 48.52806 | -114.22623 | 37008 ft | 472 kts | 34° |
| 2026-05-08 09:08 | 48.57673 | -114.15970 | 37014 ft | 471 kts | 34° |
| 2026-05-08 09:08 | 48.62487 | -114.09374 | 37004 ft | 469 kts | 34° |
| 2026-05-08 09:09 | 48.67336 | -114.02715 | 36996 ft | 471 kts | 34° |
| 2026-05-08 09:09 | 48.72183 | -113.96034 | 36985 ft | 470 kts | 34° |
| 2026-05-08 09:10 | 48.77013 | -113.89365 | 36980 ft | 470 kts | 34° |
| 2026-05-08 09:10 | 48.81849 | -113.82665 | 36966 ft | 469 kts | 34° |
| 2026-05-08 09:11 | 48.86649 | -113.75997 | 36952 ft | 470 kts | 34° |
| 2026-05-08 09:11 | 48.91488 | -113.69258 | 36950 ft | 469 kts | 34° |
| 2026-05-08 09:12 | 48.95491 | -113.63671 | 36956 ft | 471 kts | 34° |
| 2026-05-08 09:12 | 49.00948 | -113.56029 | 36948 ft | 470 kts | 34° |
| 2026-05-08 09:13 | 49.04947 | -113.50415 | 36946 ft | 470 kts | 34° |
| 2026-05-08 09:13 | 49.10573 | -113.42494 | 36958 ft | 470 kts | 34° |
| 2026-05-08 09:14 | 49.14566 | -113.36856 | 36940 ft | 470 kts | 34° |
| 2026-05-08 09:14 | 49.19368 | -113.30060 | 36950 ft | 470 kts | 34° |
| 2026-05-08 09:15 | 49.24164 | -113.23253 | 36953 ft | 470 kts | 34° |
| 2026-05-08 09:15 | 49.28956 | -113.16431 | 36962 ft | 470 kts | 34° |
| 2026-05-08 09:16 | 49.33754 | -113.09584 | 36966 ft | 470 kts | 34° |
| 2026-05-08 09:16 | 49.38510 | -113.02776 | 36970 ft | 470 kts | 34° |
| 2026-05-08 09:17 | 49.43282 | -112.95927 | 36962 ft | 469 kts | 34° |
| 2026-05-08 09:17 | 49.48049 | -112.89066 | 36961 ft | 469 kts | 34° |
| 2026-05-08 09:18 | 49.52808 | -112.82197 | 36965 ft | 468 kts | 34° |
| 2026-05-08 09:18 | 49.57561 | -112.75318 | 36963 ft | 468 kts | 34° |
| 2026-05-08 09:19 | 49.62297 | -112.68444 | 36964 ft | 467 kts | 34° |
| 2026-05-08 09:19 | 49.67349 | -112.62433 | 36965 ft | 459 kts | 27° |